Marion, Arkansas
Current Conditions -  °F | °C
As of 5:53 AM on Tuesday 27 Jan 2015 (Local Time) from KAWM Reporting Station
Clear Clear  
Wind Chill: 35°   Ceiling: Unl
Heat Index: 39°   Visibility: 10mi
Dew Point: 34°   Wind: 6mph
Humidity: 82%   Direction: 310°NW
Pressure: 30.01"   Gusts: NA
Location:  35.21°N, 90.2°W
Report Text: KAWM 271153Z AUTO 31005KT 10SM CLR 04/01 A3001 RMK AO2 SLP162 T00390011 10044 20006 53010
Loading
Personal Weather Stations






























Interactive Weather Map New forecast layout! Learn more

10-Day Weather Forecast

Advertisements
Track Severe Weather on mobile